Meteorología y climatología de Navarra
Datos de la estación - Meteo Navarra

Estación de Etxarri-Aranatz GN

Altitud 505 m.


Datos desde el 15/02/2020 hasta el 16/02/2020 en horario solar
Los datos son PROVISIONALES

Anterior Página 1 de 1 Siguiente Descargar: Formato para Excel 2000 o superior   Formato csv   Formato para OpenOffice Calc
Fecha Temperatura Humedad relativa Radiación global Insolación Precipitación Vel. viento 10 m Vel. viento 10 m Dir. viento 10 m
ºC % W/m² s l/m² m/s km/h º
15/02/2020 0:00 3.4 97 0.0 0 0.0 1.0 3.5 333
15/02/2020 0:10 3.4 94 0.0 0 0.0 0.6 2.3 307
15/02/2020 0:20 2.6 95 0.0 0 0.0 0.1 0.3 281
15/02/2020 0:30 2.0 94 0.0 0 0.0 1.1 3.9 169
15/02/2020 0:40 1.9 96 0.0 0 0.0 1.2 4.4 156
15/02/2020 0:50 2.2 98 0.0 0 0.0 0.5 1.8 64
15/02/2020 1:00 2.5 98 0.0 0 0.0 0.5 1.7 30
15/02/2020 1:10 2.5 97 0.0 0 0.0 0.5 1.7 346
15/02/2020 1:20 2.0 96 0.0 0 0.0 0.2 0.8 328
15/02/2020 1:30 1.8 96 0.0 0 0.0 0.2 0.8 294
15/02/2020 1:40 1.7 96 0.0 0 0.0 0.5 1.8 208
15/02/2020 1:50 1.6 97 0.0 0 0.0 0.2 0.5 184
15/02/2020 2:00 1.7 97 0.0 0 0.0 0.1 0.2 139
15/02/2020 2:10 1.2 96 0.0 0 0.0 0.4 1.4 192
15/02/2020 2:20 1.0 97 0.0 0 0.0 0.9 3.3 201
15/02/2020 2:30 1.3 98 0.0 0 0.0 0.2 0.6 240
15/02/2020 2:40 1.0 97 0.0 0 0.0 0.4 1.4 330
15/02/2020 2:50 1.3 97 0.0 0 0.0 0.3 1.1 286
15/02/2020 3:00 1.0 97 0.0 0 0.0 0.4 1.4 199
15/02/2020 3:10 0.7 97 0.0 0 0.0 0.2 0.9 174
15/02/2020 3:20 0.8 97 0.0 0 0.0 0.6 2.3 208
15/02/2020 3:30 0.6 97 0.0 0 0.0 0.7 2.4 246
15/02/2020 3:40 1.0 99 0.0 0 0.0 0.1 0.4 321
15/02/2020 3:50 1.1 98 0.0 0 0.0 0.8 2.8 236
15/02/2020 4:00 0.9 98 0.0 0 0.0 0.7 2.6 322
15/02/2020 4:10 1.2 99 0.0 0 0.0 1.0 3.4 324
15/02/2020 4:20 1.3 99 0.0 0 0.0 1.3 4.6 224
15/02/2020 4:30 1.0 99 0.0 0 0.0 1.5 5.3 172
15/02/2020 4:40 1.2 99 0.0 0 0.0 1.0 3.5 130
15/02/2020 4:50 1.6 99 0.0 0 0.0 0.5 1.8 103
15/02/2020 5:00 1.9 99 0.0 0 0.0 0.9 3.4 1
15/02/2020 5:10 1.8 99 0.0 0 0.0 1.1 3.8 328
15/02/2020 5:20 1.9 99 0.0 0 0.0 1.3 4.6 298
15/02/2020 5:30 1.8 99 0.0 0 0.0 0.9 3.1 223
15/02/2020 5:40 1.6 99 0.0 0 0.0 1.2 4.1 120
15/02/2020 5:50 1.9 99 0.0 0 0.0 1.2 4.3 130
15/02/2020 6:00 1.9 99 0.0 0 0.0 0.5 1.7 239
15/02/2020 6:10 1.8 99 0.0 0 0.0 0.5 1.7 292
15/02/2020 6:20 1.9 99 0.0 0 0.0 1.0 3.6 339
15/02/2020 6:30 1.8 99 0.0 0 0.0 0.7 2.4 276
15/02/2020 6:40 1.7 99 0.0 0 0.0 0.2 0.8 332
15/02/2020 6:50 1.8 99 0.0 0 0.0 1.0 3.7 128
15/02/2020 7:00 1.8 99 0.0 0 0.0 0.6 2.2 170
15/02/2020 7:10 1.8 99 0.0 0 0.0 0.5 1.8 311
15/02/2020 7:20 1.9 99 0.0 0 0.0 0.8 2.8 329
15/02/2020 7:30 1.8 99 0.0 0 0.0 0.6 2.0 342
15/02/2020 7:40 1.8 99 2.4 0 0.0 0.2 0.8 324
15/02/2020 7:50 1.8 99 27.2 0 0.0 0.9 3.1 340
15/02/2020 8:00 1.7 99 37.6 0 0.0 0.8 2.7 303
15/02/2020 8:10 1.7 99 52.0 0 0.0 0.6 2.0 281
15/02/2020 8:20 2.0 99 64.4 0 0.0 0.9 3.3 233
15/02/2020 8:30 2.4 100 69.7 0 0.0 1.0 3.4 235
15/02/2020 8:40 2.5 99 93.5 114 0.0 0.4 1.5 217
15/02/2020 8:50 2.9 100 122.5 92 0.0 0.5 1.6 236
15/02/2020 9:00 3.3 100 121.5 86 0.0 0.7 2.7 247
15/02/2020 9:10 3.3 99 178.4 308 0.0 0.7 2.6 127
15/02/2020 9:20 3.6 99 282.7 600 0.0 0.6 2.1 50
15/02/2020 9:30 4.8 100 299.4 600 0.0 0.9 3.3 94
15/02/2020 9:40 5.2 99 322.6 550 0.0 0.8 2.9 88
15/02/2020 9:50 4.9 99 353.5 564 0.0 0.9 3.1 74
15/02/2020 10:00 6.3 100 430.3 600 0.0 1.3 4.7 116
15/02/2020 10:10 7.4 99 455.2 600 0.0 1.2 4.2 79
15/02/2020 10:20 7.8 96 479.6 600 0.0 1.0 3.6 41
15/02/2020 10:30 9.1 90 504.5 600 0.0 1.2 4.2 69
15/02/2020 10:40 10.1 85 514.3 600 0.0 1.6 5.8 62
15/02/2020 10:50 11.9 77 520.5 600 0.0 2.3 8.3 76
15/02/2020 11:00 13.2 72 518.5 600 0.0 2.4 8.5 69
15/02/2020 11:10 13.4 69 534.4 600 0.0 1.9 6.9 59
15/02/2020 11:20 13.6 69 556.8 600 0.0 2.5 9.1 68
15/02/2020 11:30 13.9 67 571.3 600 0.0 2.0 7.2 58
15/02/2020 11:40 13.9 67 578.2 600 0.0 1.8 6.5 55
15/02/2020 11:50 14.7 66 587.1 600 0.0 2.4 8.5 71
15/02/2020 12:00 15.7 62 593.2 600 0.0 2.2 7.7 71
15/02/2020 12:10 15.6 62 601.4 600 0.0 2.3 8.3 63
15/02/2020 12:20 15.8 61 583.5 600 0.0 1.8 6.5 65
15/02/2020 12:30 15.6 62 590.8 600 0.0 1.5 5.5 57
15/02/2020 12:40 15.8 61 633.3 600 0.0 2.3 8.2 66
15/02/2020 12:50 17.1 54 589.4 600 0.0 3.4 12.2 163
15/02/2020 13:00 16.9 51 519.2 600 0.0 5.7 20.5 169
15/02/2020 13:10 17.2 51 602.3 600 0.0 5.3 19.1 168
15/02/2020 13:20 17.3 49 420.8 600 0.0 5.1 18.3 170
15/02/2020 13:30 16.4 52 340.1 600 0.0 5.1 18.3 166
15/02/2020 13:40 15.8 54 313.0 422 0.0 5.9 21.1 168
15/02/2020 13:50 15.2 56 271.9 30 0.0 6.0 21.5 167
15/02/2020 14:00 15.1 57 284.8 404 0.0 5.5 19.7 163
15/02/2020 14:10 15.2 56 350.1 600 0.0 5.1 18.3 162
15/02/2020 14:20 15.6 55 328.1 600 0.0 3.8 13.8 158
15/02/2020 14:30 16.0 55 338.8 600 0.0 3.7 13.4 170
15/02/2020 14:40 16.5 53 384.4 600 0.0 3.0 10.8 157
15/02/2020 14:50 16.8 52 273.5 564 0.0 3.6 12.9 177
15/02/2020 15:00 16.0 54 199.7 52 0.0 4.3 15.4 171
15/02/2020 15:10 15.5 56 170.5 0 0.0 3.3 11.8 169
15/02/2020 15:20 15.6 52 147.1 0 0.0 2.1 7.7 148
15/02/2020 15:30 15.6 50 130.3 0 0.0 1.3 4.7 157
15/02/2020 15:40 15.7 51 119.1 0 0.0 2.1 7.6 174
15/02/2020 15:50 15.5 52 117.8 0 0.0 2.6 9.3 156
15/02/2020 16:00 15.4 53 84.1 0 0.0 2.2 7.8 158
15/02/2020 16:10 15.1 52 70.8 0 0.0 2.7 9.6 147
15/02/2020 16:20 14.9 53 59.4 0 0.0 2.0 7.3 137
15/02/2020 16:30 14.7 54 51.3 0 0.0 2.6 9.3 140
15/02/2020 16:40 14.6 53 47.6 0 0.0 3.1 11.2 143
15/02/2020 16:50 14.3 54 52.3 0 0.0 4.0 14.4 151
15/02/2020 17:00 14.0 55 48.0 0 0.0 4.7 17.0 151
15/02/2020 17:10 13.8 57 43.0 202 0.0 3.8 13.6 159
15/02/2020 17:20 13.4 60 21.6 0 0.0 5.0 17.9 163
15/02/2020 17:30 13.1 63 4.2 0 0.0 4.3 15.5 167
15/02/2020 17:40 12.8 66 0.0 0 0.0 4.3 15.3 167
15/02/2020 17:50 12.6 68 0.0 0 0.0 4.1 14.9 167
15/02/2020 18:00 12.7 68 0.0 0 0.0 4.2 15.2 170
15/02/2020 18:10 12.7 69 0.0 0 0.0 4.9 17.7 187
15/02/2020 18:20 12.8 69 0.0 0 0.0 4.2 15.1 193
15/02/2020 18:30 12.6 69 0.0 0 0.0 2.7 9.6 185
15/02/2020 18:40 12.7 69 0.0 0 0.0 1.2 4.2 213
15/02/2020 18:50 12.6 69 0.0 0 0.0 1.1 4.0 78
15/02/2020 19:00 12.6 68 0.0 0 0.0 2.3 8.1 110
15/02/2020 19:10 12.8 66 0.0 0 0.0 2.2 7.8 134
15/02/2020 19:20 12.4 67 0.0 0 0.0 1.6 5.8 186
15/02/2020 19:30 11.7 71 0.0 0 0.0 0.4 1.3 250
15/02/2020 19:40 11.5 71 0.0 0 0.0 1.1 3.9 176
15/02/2020 19:50 11.7 68 0.0 0 0.0 3.0 10.9 157
15/02/2020 20:00 12.4 65 0.0 0 0.0 2.8 10.0 159
15/02/2020 20:10 12.5 66 0.0 0 0.0 3.2 11.4 167
15/02/2020 20:20 12.4 67 0.0 0 0.0 2.4 8.7 182
15/02/2020 20:30 12.7 68 0.0 0 0.0 3.2 11.6 153
15/02/2020 20:40 12.8 68 0.0 0 0.0 1.7 6.2 161
15/02/2020 20:50 12.5 69 0.0 0 0.0 0.6 2.3 246
15/02/2020 21:00 12.7 68 0.0 0 0.0 0.4 1.5 350
15/02/2020 21:10 12.7 68 0.0 0 0.0 1.3 4.5 199
15/02/2020 21:20 11.5 70 0.0 0 0.0 1.5 5.5 299
15/02/2020 21:30 10.3 74 0.0 0 0.0 1.2 4.2 273
15/02/2020 21:40 10.1 76 0.0 0 0.0 0.7 2.4 275
15/02/2020 21:50 9.8 76 0.0 0 0.0 0.7 2.4 298
15/02/2020 22:00 9.7 78 0.0 0 0.0 0.9 3.1 296
15/02/2020 22:10 9.0 79 0.0 0 0.0 0.8 3.0 279
15/02/2020 22:20 8.0 81 0.0 0 0.0 1.6 5.8 180
15/02/2020 22:30 7.8 86 0.0 0 0.0 1.2 4.4 176
15/02/2020 22:40 8.1 85 0.0 0 0.0 0.9 3.2 357
15/02/2020 22:50 8.5 85 0.0 0 0.0 1.0 3.7 98
15/02/2020 23:00 9.0 84 0.0 0 0.0 2.2 8.0 132
15/02/2020 23:10 11.5 77 0.0 0 0.0 4.7 17.0 159
15/02/2020 23:20 12.2 73 0.0 0 0.0 4.5 16.2 159
15/02/2020 23:30 12.3 72 0.0 0 0.0 4.0 14.2 154
15/02/2020 23:40 12.3 71 0.0 0 0.0 3.6 12.9 146
15/02/2020 23:50 12.2 72 0.0 0 0.0 3.4 12.4 150
Anterior Página 1 de 1 Siguiente

NOTA: Tipo de datos según el color:
   - Valores diarios o 10 minutos correctos
   - Valores diarios calculados a partir de un número de datos 10 minutos menor que 144 y mayor que 120, o de un número de datos semihorarios menor que 48 y mayor que 40 (caso de las estaciones de INTIA y del Ministerio)
   - Valores diez minutos estimados


Contacto        Enlaces        Aviso legal